Time;durP1;ratioP1;P1;durP2;ratioP2;P2;SDS_P1;SDS_P2;PMS_P1;PMS_P2;Temp;Humidity;BMP_temperature;BMP_pressure;BME280_temperature;BME280_humidity;BME280_pressure;Samples;Min_cycle;Max_cycle;Signal;HPM_P1;HPM_P2
2023/03/18 00:04:43;;;;;;;;;;;;;;;11.87;81.36;100671.84;10499026;28;19978;-62
2023/03/18 00:09:45;;;;;;;;;;;;;;;11.60;80.49;100680.53;10496293;28;19924;-62
2023/03/18 00:14:47;;;;;;;;;;;;;;;11.50;81.53;100682.06;10498103;28;19982;-62
2023/03/18 00:19:49;;;;;;;;;;;;;;;11.60;81.55;100682.28;10499055;28;19970;-61
2023/03/18 00:24:52;;;;;;;;;;;;;;;11.58;82.46;100681.56;10495493;28;19929;-62
2023/03/18 00:29:54;;;;;;;;;;;;;;;11.37;84.26;100676.72;10496333;28;20295;-62
2023/03/18 00:34:57;;;;;;;;;;;;;;;11.37;84.64;100671.50;10496704;28;20036;-61
2023/03/18 00:40:04;;;;;;;;;;;;;;;11.25;85.46;100682.75;10492714;28;19994;-62
2023/03/18 00:45:07;;;;;;;;;;;;;;;11.43;84.45;100692.09;10495788;28;19971;-62
2023/03/18 00:50:10;;;;;;;;;;;;;;;11.42;85.89;100700.88;10496604;28;19924;-62
2023/03/18 00:55:13;;;;;;;;;;;;;;;11.41;85.51;100708.84;10498165;28;19924;-61
2023/03/18 01:00:18;;;;;;;;;;;;;;;11.39;87.97;100713.34;10497641;28;20330;-61
2023/03/18 01:05:21;;;;;;;;;;;;;;;11.10;89.01;100710.72;10496217;28;20329;-62
2023/03/18 01:10:24;;;;;;;;;;;;;;;11.43;87.51;100707.81;10479368;28;19925;-62
2023/03/18 01:15:27;;;;;;;;;;;;;;;11.38;88.86;100696.78;10497797;28;19939;-62
2023/03/18 01:20:29;;;;;;;;;;;;;;;11.37;90.08;100704.72;10486436;28;19928;-62
2023/03/18 01:25:32;;;;;;;;;;;;;;;11.03;91.83;100709.41;10504220;28;19978;-61
2023/03/18 01:30:34;;;;;;;;;;;;;;;11.14;92.19;100707.81;10503546;28;19924;-62
2023/03/18 01:35:37;;;;;;;;;;;;;;;11.23;89.08;100711.66;10504765;28;19970;-61
2023/03/18 01:40:39;;;;;;;;;;;;;;;11.07;91.58;100714.38;10504293;28;19924;-61
2023/03/18 01:45:52;;;;;;;;;;;;;;;11.22;90.33;100714.38;10504760;28;19932;-61
2023/03/18 01:50:59;;;;;;;;;;;;;;;11.33;89.10;100712.78;10501680;28;19925;-62
2023/03/18 01:56:02;;;;;;;;;;;;;;;11.06;90.11;100715.31;10502457;28;19924;-62
2023/03/18 02:01:08;;;;;;;;;;;;;;;11.22;91.76;100711.75;10502472;28;19924;-61
2023/03/18 02:06:11;;;;;;;;;;;;;;;11.05;92.77;100713.63;10485727;28;19925;-61
2023/03/18 02:11:13;;;;;;;;;;;;;;;10.93;97.24;100707.34;10503806;28;20003;-62
2023/03/18 02:16:20;;;;;;;;;;;;;;;10.91;100.00;100710.97;10484385;28;19931;-62
2023/03/18 02:21:27;;;;;;;;;;;;;;;10.85;100.00;100714.81;10481064;28;19928;-61
2023/03/18 02:26:38;;;;;;;;;;;;;;;10.76;100.00;100712.78;10483869;28;19936;-61
2023/03/18 02:31:41;;;;;;;;;;;;;;;10.54;100.00;100726.25;10501126;28;19928;-61
2023/03/18 02:36:43;;;;;;;;;;;;;;;10.64;100.00;100721.31;10481510;28;19931;-61
2023/03/18 02:41:46;;;;;;;;;;;;;;;10.83;100.00;100731.56;10499568;28;19951;-61
2023/03/18 02:46:48;;;;;;;;;;;;;;;10.94;100.00;100734.38;10483140;28;19958;-61
2023/03/18 02:51:50;;;;;;;;;;;;;;;11.19;100.00;100738.16;10498305;28;19925;-61
2023/03/18 02:56:53;;;;;;;;;;;;;;;10.94;100.00;100744.84;10498330;28;19932;-61
2023/03/18 03:01:56;;;;;;;;;;;;;;;11.03;100.00;100757.41;10499705;28;19925;-61
2023/03/18 03:06:58;;;;;;;;;;;;;;;11.11;100.00;100747.31;10500671;28;19929;-62
2023/03/18 03:12:00;;;;;;;;;;;;;;;11.16;100.00;100749.63;10499983;28;19928;-61
2023/03/18 03:17:03;;;;;;;;;;;;;;;11.19;100.00;100748.63;10481123;28;19925;-61
2023/03/18 03:22:05;;;;;;;;;;;;;;;11.21;100.00;100759.84;10496954;28;19988;-61
2023/03/18 03:27:08;;;;;;;;;;;;;;;10.91;100.00;100761.63;10497737;28;19932;-61
2023/03/18 03:32:10;;;;;;;;;;;;;;;11.11;100.00;100772.66;10495839;28;19970;-61
2023/03/18 03:37:12;;;;;;;;;;;;;;;11.13;100.00;100771.66;10480583;28;19933;-62
2023/03/18 03:42:15;;;;;;;;;;;;;;;11.09;100.00;100783.22;10496802;28;19926;-61
2023/03/18 03:47:17;;;;;;;;;;;;;;;11.02;100.00;100779.31;10495475;28;19970;-61
2023/03/18 03:52:19;;;;;;;;;;;;;;;10.92;100.00;100794.72;10493697;28;19974;-61
2023/03/18 03:57:23;;;;;;;;;;;;;;;11.02;100.00;100792.41;10496100;28;19924;-61
2023/03/18 04:02:26;;;;;;;;;;;;;;;11.26;100.00;100789.25;10498390;28;19931;-61
2023/03/18 04:07:28;;;;;;;;;;;;;;;11.01;100.00;100798.59;10495990;28;19928;-61
2023/03/18 04:12:30;;;;;;;;;;;;;;;10.75;100.00;100803.56;10497126;28;19925;-62
2023/03/18 04:17:33;;;;;;;;;;;;;;;10.97;100.00;100805.75;10497037;28;19932;-61
2023/03/18 04:22:36;;;;;;;;;;;;;;;11.09;100.00;100801.56;10496756;28;19931;-61
2023/03/18 04:27:38;;;;;;;;;;;;;;;11.13;100.00;100802.25;10480460;28;20268;-61
2023/03/18 04:32:40;;;;;;;;;;;;;;;11.23;100.00;100798.16;10494762;28;19924;-61
2023/03/18 04:37:43;;;;;;;;;;;;;;;10.93;100.00;100812.13;10493951;28;20431;-61
2023/03/18 04:42:46;;;;;;;;;;;;;;;10.83;100.00;100824.06;10495159;28;19970;-61
2023/03/18 04:47:48;;;;;;;;;;;;;;;11.18;100.00;100809.81;10496380;28;19943;-61
2023/03/18 04:52:51;;;;;;;;;;;;;;;11.00;100.00;100806.53;10500842;28;19925;-61
2023/03/18 04:57:54;;;;;;;;;;;;;;;11.02;100.00;100807.28;10500358;28;20595;-61
2023/03/18 05:02:56;;;;;;;;;;;;;;;10.99;100.00;100802.22;10502984;28;19924;-62
2023/03/18 05:07:59;;;;;;;;;;;;;;;11.09;100.00;100813.84;10493983;28;19982;-61
2023/03/18 05:13:02;;;;;;;;;;;;;;;10.95;100.00;100839.06;10502884;28;19924;-61
2023/03/18 05:18:04;;;;;;;;;;;;;;;11.12;100.00;100826.75;10501264;28;19958;-61
2023/03/18 05:23:07;;;;;;;;;;;;;;;10.93;100.00;100833.09;10501465;28;20379;-61
2023/03/18 05:28:10;;;;;;;;;;;;;;;11.03;100.00;100828.16;10504662;28;19983;-61
2023/03/18 05:33:12;;;;;;;;;;;;;;;11.07;100.00;100834.88;10504064;28;19929;-61
2023/03/18 05:38:15;;;;;;;;;;;;;;;11.05;100.00;100846.41;10502827;28;20008;-61
2023/03/18 05:43:17;;;;;;;;;;;;;;;11.13;100.00;100836.31;10500369;28;20310;-61
2023/03/18 05:48:20;;;;;;;;;;;;;;;10.93;100.00;100838.31;10502167;28;20302;-61
2023/03/18 05:53:22;;;;;;;;;;;;;;;11.02;100.00;100857.91;10503490;28;19931;-61
2023/03/18 05:58:29;;;;;;;;;;;;;;;11.02;100.00;100867.53;10501804;28;19949;-61
2023/03/18 06:03:33;;;;;;;;;;;;;;;10.96;100.00;100869.59;10500187;28;19931;-61
2023/03/18 06:08:36;;;;;;;;;;;;;;;11.11;100.00;100861.75;10501121;28;19932;-61
2023/03/18 06:13:38;;;;;;;;;;;;;;;11.36;100.00;100862.94;10500852;28;19948;-61
2023/03/18 06:18:41;;;;;;;;;;;;;;;11.13;100.00;100873.84;10503013;28;19924;-61
2023/03/18 06:23:43;;;;;;;;;;;;;;;11.09;100.00;100882.78;10498662;28;19932;-61
2023/03/18 06:28:46;;;;;;;;;;;;;;;11.32;100.00;100881.47;10501991;28;19974;-61
2023/03/18 06:33:48;;;;;;;;;;;;;;;11.25;100.00;100888.00;10501737;28;19924;-61
2023/03/18 06:38:50;;;;;;;;;;;;;;;11.26;100.00;100888.84;10501025;28;19970;-62
2023/03/18 06:43:53;;;;;;;;;;;;;;;11.31;100.00;100890.28;10519384;22;19924;-67
2023/03/18 06:48:55;;;;;;;;;;;;;;;11.25;100.00;100885.38;10540777;28;19981;-67
2023/03/18 06:53:57;;;;;;;;;;;;;;;11.51;100.00;100881.19;10541803;28;19928;-67
2023/03/18 06:59:00;;;;;;;;;;;;;;;11.51;100.00;100891.69;10541220;28;19950;-67
2023/03/18 07:04:02;;;;;;;;;;;;;;;11.79;100.00;100883.94;10525597;28;20028;-67
2023/03/18 07:09:05;;;;;;;;;;;;;;;11.53;100.00;100891.59;10543360;28;19924;-67
2023/03/18 07:14:07;;;;;;;;;;;;;;;11.82;100.00;100895.09;10541133;28;19950;-67
2023/03/18 07:19:10;;;;;;;;;;;;;;;12.15;100.00;100895.75;10530503;28;19928;-67
2023/03/18 07:24:13;;;;;;;;;;;;;;;12.03;100.00;100907.84;10538477;28;19924;-67
2023/03/18 07:29:15;;;;;;;;;;;;;;;12.15;100.00;100912.34;10537860;28;19932;-67
2023/03/18 07:34:18;;;;;;;;;;;;;;;12.54;100.00;100915.19;10541358;28;19928;-68
2023/03/18 07:39:21;;;;;;;;;;;;;;;12.76;100.00;100909.38;10540267;28;19924;-68
2023/03/18 07:44:24;;;;;;;;;;;;;;;12.83;100.00;100921.19;10533873;28;19931;-68
2023/03/18 07:49:26;;;;;;;;;;;;;;;13.32;100.00;100917.16;10524952;28;20356;-67
2023/03/18 07:54:29;;;;;;;;;;;;;;;13.80;100.00;100912.13;10540028;28;19951;-68
2023/03/18 07:59:31;;;;;;;;;;;;;;;13.33;100.00;100929.34;10535516;28;19924;-67
2023/03/18 08:04:34;;;;;;;;;;;;;;;13.43;100.00;100940.09;10537027;28;19928;-67
2023/03/18 08:09:37;;;;;;;;;;;;;;;13.12;100.00;100937.69;10538135;28;20022;-68
2023/03/18 08:14:39;;;;;;;;;;;;;;;12.92;100.00;100948.66;10539801;28;19924;-68
2023/03/18 08:19:41;;;;;;;;;;;;;;;12.71;100.00;100957.00;10540193;28;19928;-67
2023/03/18 08:24:44;;;;;;;;;;;;;;;13.33;100.00;100951.25;10540257;28;20364;-68
2023/03/18 08:29:46;;;;;;;;;;;;;;;13.42;100.00;100955.03;10501243;28;19925;-67
2023/03/18 08:34:49;;;;;;;;;;;;;;;13.52;100.00;100961.38;10526092;28;20399;-68
2023/03/18 08:39:51;;;;;;;;;;;;;;;14.66;96.48;100968.47;10539717;28;19924;-68
2023/03/18 08:44:53;;;;;;;;;;;;;;;14.95;93.53;100949.69;10522648;28;19924;-68
2023/03/18 08:49:56;;;;;;;;;;;;;;;14.64;91.62;100949.28;10539752;28;19925;-68
2023/03/18 08:54:58;;;;;;;;;;;;;;;13.89;90.17;100958.84;10535861;28;20439;-68
2023/03/18 09:00:00;;;;;;;;;;;;;;;14.82;88.18;100961.13;10538676;28;19924;-68
2023/03/18 09:05:04;;;;;;;;;;;;;;;15.77;85.78;100955.03;10538838;28;20294;-68
2023/03/18 09:10:06;;;;;;;;;;;;;;;16.66;79.37;100953.28;10538709;28;19963;-68
2023/03/18 09:15:09;;;;;;;;;;;;;;;15.30;78.82;100948.84;10538515;28;19932;-68
2023/03/18 09:20:12;;;;;;;;;;;;;;;17.55;73.59;100955.72;10538467;28;19928;-68
2023/03/18 09:25:15;;;;;;;;;;;;;;;17.58;75.14;100951.97;10536972;28;20286;-68
2023/03/18 09:30:18;;;;;;;;;;;;;;;17.34;70.49;100947.78;10536310;28;19924;-68
2023/03/18 09:35:20;;;;;;;;;;;;;;;17.82;70.58;100943.75;10537405;28;19928;-68
2023/03/18 09:40:29;;;;;;;;;;;;;;;19.14;69.01;100951.69;10541526;28;19924;-68
2023/03/18 09:45:33;;;;;;;;;;;;;;;20.83;62.68;100945.50;10521853;28;19924;-68
2023/03/18 09:50:44;;;;;;;;;;;;;;;19.88;63.23;100956.31;10502722;28;19970;-68
2023/03/18 09:55:51;;;;;;;;;;;;;;;19.02;63.09;100964.25;10503465;28;19924;-68
2023/03/18 10:01:00;;;;;;;;;;;;;;;20.75;61.63;100955.06;10503720;28;19924;-68
2023/03/18 10:06:17;;;;;;;;;;;;;;;20.32;59.85;100964.53;10503006;28;19925;-69
2023/03/18 10:11:22;;;;;;;;;;;;;;;20.53;61.56;100963.47;10502176;28;20306;-69
2023/03/18 10:16:26;;;;;;;;;;;;;;;21.68;58.89;100972.50;10503686;28;19931;-69
2023/03/18 10:21:31;;;;;;;;;;;;;;;21.08;56.92;100968.69;10502975;28;20398;-69
2023/03/18 10:26:40;;;;;;;;;;;;;;;22.21;58.72;100965.31;10502706;28;20272;-69
2023/03/18 10:31:45;;;;;;;;;;;;;;;21.40;55.90;100963.78;10502102;28;19950;-69
2023/03/18 10:36:58;;;;;;;;;;;;;;;22.27;54.09;100960.19;10503098;28;19925;-69
2023/03/18 10:42:19;;;;;;;;;;;;;;;24.11;52.62;100957.25;10502293;28;19973;-69
2023/03/18 10:47:24;;;;;;;;;;;;;;;23.05;54.74;100955.53;10501801;28;19924;-69
2023/03/18 10:52:26;;;;;;;;;;;;;;;23.20;53.44;100963.75;10500388;28;20337;-69
2023/03/18 10:57:28;;;;;;;;;;;;;;;25.79;51.45;100947.72;10502032;28;19928;-69
2023/03/18 11:02:31;;;;;;;;;;;;;;;24.15;48.39;100957.75;10501941;28;19939;-69
2023/03/18 11:07:34;;;;;;;;;;;;;;;22.65;52.21;100948.31;10501064;28;19926;-70
2023/03/18 11:12:36;;;;;;;;;;;;;;;23.09;52.76;100940.88;10499960;28;19924;-69
2023/03/18 11:17:39;;;;;;;;;;;;;;;23.95;49.71;100935.09;10499073;28;19929;-70
2023/03/18 11:22:45;;;;;;;;;;;;;;;24.62;49.31;100935.47;10501255;28;19928;-70
2023/03/18 11:27:50;;;;;;;;;;;;;;;26.09;48.16;100932.47;10499075;28;19932;-70
2023/03/18 11:32:57;;;;;;;;;;;;;;;25.00;46.56;100926.69;10500661;28;19925;-70
2023/03/18 11:38:01;;;;;;;;;;;;;;;24.58;48.01;100928.81;10499250;28;19974;-70
2023/03/18 11:43:04;;;;;;;;;;;;;;;26.28;45.84;100933.72;10500386;28;19970;-70
2023/03/18 11:48:09;;;;;;;;;;;;;;;27.87;44.91;100927.28;10499281;28;20253;-70
2023/03/18 11:53:23;;;;;;;;;;;;;;;25.50;42.70;100927.06;10500074;28;19978;-70
2023/03/18 11:58:30;;;;;;;;;;;;;;;26.59;42.44;100929.13;10499135;28;19950;-69
2023/03/18 12:03:35;;;;;;;;;;;;;;;24.79;42.83;100913.94;10497291;28;19928;-69
2023/03/18 12:08:37;;;;;;;;;;;;;;;22.39;49.42;100938.56;10499491;28;19924;-69
2023/03/18 12:14:16;;;;;;;;;;;;;;;21.12;49.87;100929.31;10499524;28;19955;-69
2023/03/18 12:19:36;;;;;;;;;;;;;;;20.58;52.06;100931.94;10400482;28;19951;-69
2023/03/18 12:24:51;;;;;;;;;;;;;;;20.84;55.93;100936.53;10496619;28;19928;-68
2023/03/18 12:29:59;;;;;;;;;;;;;;;20.39;51.85;100939.03;10496110;28;19990;-68
2023/03/18 12:35:04;;;;;;;;;;;;;;;20.26;53.91;100932.38;10497453;28;19924;-68
2023/03/18 12:40:29;;;;;;;;;;;;;;;20.47;53.43;100935.63;10497624;28;20275;-68
2023/03/18 12:45:36;;;;;;;;;;;;;;;19.88;56.28;100939.56;10498155;28;19925;-68
2023/03/18 12:50:39;;;;;;;;;;;;;;;19.67;55.45;100938.75;10497741;28;19972;-68
2023/03/18 12:55:45;;;;;;;;;;;;;;;19.38;55.85;100944.09;10498532;28;19978;-68
2023/03/18 13:00:51;;;;;;;;;;;;;;;18.86;57.75;100935.59;10497200;28;19924;-68
2023/03/18 13:05:59;;;;;;;;;;;;;;;18.33;59.66;100928.78;10497693;28;19925;-68
2023/03/18 13:11:04;;;;;;;;;;;;;;;17.34;62.72;100931.06;10497652;28;19932;-68
2023/03/18 13:16:06;;;;;;;;;;;;;;;17.77;63.40;100938.84;10503764;28;19978;-68
2023/03/18 13:21:12;;;;;;;;;;;;;;;17.34;62.83;100936.34;10504810;28;19928;-68
2023/03/18 13:26:30;;;;;;;;;;;;;;;17.76;62.04;100942.47;10487416;28;19931;-68
2023/03/18 13:31:35;;;;;;;;;;;;;;;17.89;61.53;100931.69;10504865;28;19926;-68
2023/03/18 13:36:49;;;;;;;;;;;;;;;18.77;59.91;100923.97;10504689;28;19924;-68
2023/03/18 13:41:54;;;;;;;;;;;;;;;19.17;57.92;100933.66;10501984;28;20288;-68
2023/03/18 13:46:58;;;;;;;;;;;;;;;18.32;59.53;100938.53;10502153;28;19927;-68
2023/03/18 13:52:01;;;;;;;;;;;;;;;17.31;63.13;100936.59;10528571;28;19924;-68
2023/03/18 13:57:27;;;;;;;;;;;;;;;17.47;62.43;100921.13;10545227;28;19924;-68
2023/03/18 14:02:46;;;;;;;;;;;;;;;17.39;64.33;100934.16;10506595;28;19928;-68
2023/03/18 14:07:48;;;;;;;;;;;;;;;17.35;63.20;100922.13;10545890;28;19924;-68
2023/03/18 14:12:50;;;;;;;;;;;;;;;17.50;63.18;100917.38;10545867;28;19974;-68
2023/03/18 14:17:55;;;;;;;;;;;;;;;16.74;63.60;100915.66;10544722;28;20363;-68
2023/03/18 14:23:17;;;;;;;;;;;;;;;16.90;64.92;100912.63;10541727;28;19978;-68
2023/03/18 14:28:23;;;;;;;;;;;;;;;16.59;66.41;100917.72;10544133;28;19924;-69
2023/03/18 14:33:29;;;;;;;;;;;;;;;17.88;63.15;100898.22;10542925;28;20023;-68
2023/03/18 14:38:51;;;;;;;;;;;;;;;17.06;65.43;100902.47;10543762;28;19969;-68
2023/03/18 14:43:57;;;;;;;;;;;;;;;16.99;65.70;100901.28;10544815;28;19928;-68
2023/03/18 14:49:00;;;;;;;;;;;;;;;16.67;65.51;100891.50;10543254;28;19961;-68
2023/03/18 14:54:03;;;;;;;;;;;;;;;16.81;65.43;100890.41;10542111;28;19924;-68
2023/03/18 14:59:07;;;;;;;;;;;;;;;16.65;66.29;100890.81;10542781;28;19924;-68
2023/03/18 15:04:17;;;;;;;;;;;;;;;17.08;65.17;100889.13;10540849;28;19955;-68
2023/03/18 15:09:24;;;;;;;;;;;;;;;17.71;61.69;100880.28;10542932;28;20302;-68
2023/03/18 15:14:29;;;;;;;;;;;;;;;22.31;52.48;100871.84;10541875;28;19931;-68
2023/03/18 15:19:31;;;;;;;;;;;;;;;22.00;50.72;100875.91;10543130;28;19924;-68
2023/03/18 15:24:33;;;;;;;;;;;;;;;22.14;50.97;100879.81;10538071;28;20287;-68
2023/03/18 15:29:37;;;;;;;;;;;;;;;21.56;47.39;100876.03;10540918;28;20417;-69
2023/03/18 15:34:40;;;;;;;;;;;;;;;22.77;46.16;100881.09;10540005;28;19928;-68
2023/03/18 15:39:42;;;;;;;;;;;;;;;22.81;44.00;100874.44;10540059;28;19930;-68
2023/03/18 15:44:45;;;;;;;;;;;;;;;23.84;45.03;100875.66;10541263;28;20291;-69
2023/03/18 15:49:53;;;;;;;;;;;;;;;22.87;45.66;100875.59;10535300;28;21462;-69
2023/03/18 15:54:56;;;;;;;;;;;;;;;24.66;42.62;100877.03;10541353;28;19931;-69
2023/03/18 15:59:59;;;;;;;;;;;;;;;29.59;34.75;100867.69;10539004;28;19924;-69
2023/03/18 16:05:27;;;;;;;;;;;;;;;26.78;38.60;100869.44;10541635;28;19924;-69
2023/03/18 16:10:31;;;;;;;;;;;;;;;21.15;49.15;100870.44;10538083;28;19977;-69
2023/03/18 16:15:34;;;;;;;;;;;;;;;24.92;41.80;100867.81;10541265;28;19959;-68
2023/03/18 16:20:36;;;;;;;;;;;;;;;22.10;47.19;100873.09;10538955;28;19932;-68
2023/03/18 16:25:39;;;;;;;;;;;;;;;21.36;48.21;100874.56;10539834;28;19924;-68
2023/03/18 16:30:41;;;;;;;;;;;;;;;21.88;48.54;100871.84;10539501;28;19924;-68
2023/03/18 16:35:44;;;;;;;;;;;;;;;19.92;50.52;100870.03;10540600;28;19924;-68
2023/03/18 16:40:46;;;;;;;;;;;;;;;19.53;52.58;100882.59;10540583;28;19931;-69
2023/03/18 16:45:49;;;;;;;;;;;;;;;18.73;55.17;100880.97;10537490;28;19928;-68
2023/03/18 16:50:51;;;;;;;;;;;;;;;18.56;54.16;100877.22;10548705;28;19924;-68
2023/03/18 16:56:17;;;;;;;;;;;;;;;17.42;58.81;100879.16;10545659;28;19928;-68
2023/03/18 17:01:20;;;;;;;;;;;;;;;16.87;61.54;100881.97;10537273;28;19942;-68
2023/03/18 17:06:23;;;;;;;;;;;;;;;16.18;63.14;100879.63;10547709;28;19990;-68
2023/03/18 17:11:26;;;;;;;;;;;;;;;15.91;65.49;100887.94;10548306;28;19973;-68
2023/03/18 17:16:30;;;;;;;;;;;;;;;15.51;67.12;100888.34;10547403;28;19935;-68
2023/03/18 17:21:32;;;;;;;;;;;;;;;14.96;69.80;100888.09;10544475;28;19931;-68
2023/03/18 17:26:35;;;;;;;;;;;;;;;14.79;70.51;100897.25;10547083;28;19924;-68
2023/03/18 17:31:37;;;;;;;;;;;;;;;14.25;71.62;100894.03;10547532;28;19924;-68
2023/03/18 17:36:39;;;;;;;;;;;;;;;13.83;75.07;100893.47;10543843;28;19924;-68
2023/03/18 17:41:42;;;;;;;;;;;;;;;13.68;76.30;100891.91;10543513;28;19924;-68
2023/03/18 17:46:44;;;;;;;;;;;;;;;13.22;78.50;100905.53;10546022;28;20394;-68
2023/03/18 17:51:47;;;;;;;;;;;;;;;13.13;78.15;100906.97;10545582;28;19977;-68
2023/03/18 17:56:50;;;;;;;;;;;;;;;12.93;79.35;100906.53;10544292;28;19928;-68
2023/03/18 18:01:52;;;;;;;;;;;;;;;12.79;81.14;100903.94;10545513;28;19928;-68
2023/03/18 18:06:54;;;;;;;;;;;;;;;12.60;82.09;100910.38;10544288;28;20298;-68
2023/03/18 18:11:56;;;;;;;;;;;;;;;12.30;83.24;100910.53;10542938;28;19970;-68
2023/03/18 18:16:59;;;;;;;;;;;;;;;11.97;86.16;100910.84;10542567;28;20382;-68
2023/03/18 18:22:03;;;;;;;;;;;;;;;12.06;86.08;100913.75;10539685;28;19928;-68
2023/03/18 18:27:05;;;;;;;;;;;;;;;11.84;87.29;100927.31;10542642;28;20363;-68
2023/03/18 18:32:08;;;;;;;;;;;;;;;11.92;88.55;100931.28;10535138;28;19970;-68
2023/03/18 18:37:10;;;;;;;;;;;;;;;11.67;90.33;100935.38;10536123;28;20440;-68
2023/03/18 18:42:13;;;;;;;;;;;;;;;11.55;89.74;100941.31;10544614;28;19924;-67
2023/03/18 18:47:18;;;;;;;;;;;;;;;11.39;93.06;100938.78;10543720;28;20398;-67
2023/03/18 18:52:20;;;;;;;;;;;;;;;11.58;92.27;100949.00;10543646;28;19928;-68
2023/03/18 18:57:25;;;;;;;;;;;;;;;11.37;93.02;100945.91;10542859;28;20321;-68
2023/03/18 19:02:32;;;;;;;;;;;;;;;11.42;92.98;100957.78;10472279;22;19948;-68
2023/03/18 19:07:35;;;;;;;;;;;;;;;11.50;93.92;100955.56;10457580;28;19925;-68
2023/03/18 19:12:37;;;;;;;;;;;;;;;11.73;94.89;100953.34;10454630;28;19932;-68
2023/03/18 19:17:41;;;;;;;;;;;;;;;12.10;91.75;100948.53;10457112;28;19924;-68
2023/03/18 19:22:44;;;;;;;;;;;;;;;12.02;93.31;100943.75;10452958;28;20280;-68
2023/03/18 19:27:47;;;;;;;;;;;;;;;12.23;90.81;100948.63;10452403;28;19928;-68
2023/03/18 19:32:50;;;;;;;;;;;;;;;12.37;88.44;100951.25;10423561;28;19937;-68
2023/03/18 19:37:53;;;;;;;;;;;;;;;12.39;88.71;100946.75;10432462;28;20019;-68
2023/03/18 19:42:55;;;;;;;;;;;;;;;12.12;91.44;100949.28;10428287;28;19932;-68
2023/03/18 19:47:57;;;;;;;;;;;;;;;12.23;91.53;100943.38;10424846;28;19932;-67
2023/03/18 19:53:00;;;;;;;;;;;;;;;12.23;91.83;100951.25;10454341;28;19970;-68
2023/03/18 19:58:02;;;;;;;;;;;;;;;12.38;89.61;100944.22;10438589;28;19929;-67
2023/03/18 20:03:05;;;;;;;;;;;;;;;12.47;88.51;100946.25;10454254;28;20379;-68
2023/03/18 20:08:07;;;;;;;;;;;;;;;12.36;90.46;100951.34;10450690;28;20371;-68
2023/03/18 20:13:12;;;;;;;;;;;;;;;12.61;87.56;100976.91;10430555;28;19925;-68
2023/03/18 20:18:15;;;;;;;;;;;;;;;12.38;89.10;101025.59;10472438;28;19929;-68
2023/03/18 20:23:21;;;;;;;;;;;;;;;12.98;77.63;101032.38;10454068;28;20330;-66
2023/03/18 20:28:24;;;;;;;;;;;;;;;13.09;76.96;101018.53;10442566;28;20006;-67
2023/03/18 20:33:26;;;;;;;;;;;;;;;13.18;76.30;101018.78;10441599;28;20403;-67
2023/03/18 20:38:30;;;;;;;;;;;;;;;13.11;74.50;101014.88;10448476;28;19978;-67
2023/03/18 20:43:32;;;;;;;;;;;;;;;13.04;75.19;101026.72;10431769;28;20318;-67
2023/03/18 20:48:36;;;;;;;;;;;;;;;13.00;75.73;101020.81;10456640;28;19925;-67
2023/03/18 20:53:39;;;;;;;;;;;;;;;12.91;79.69;101015.28;10456550;28;19925;-67
2023/03/18 20:58:41;;;;;;;;;;;;;;;12.67;83.44;101017.69;10456811;28;19932;-67
2023/03/18 21:03:44;;;;;;;;;;;;;;;12.64;86.56;101019.56;10457000;28;19924;-67
2023/03/18 21:08:46;;;;;;;;;;;;;;;12.48;87.07;101018.84;10455887;28;19932;-67
2023/03/18 21:13:48;;;;;;;;;;;;;;;12.41;90.58;101028.88;10447274;28;19971;-67
2023/03/18 21:18:51;;;;;;;;;;;;;;;12.40;90.57;101011.41;10453484;28;19925;-68
2023/03/18 21:23:53;;;;;;;;;;;;;;;12.52;86.91;101014.22;10454846;28;19932;-67
2023/03/18 21:28:56;;;;;;;;;;;;;;;12.47;86.70;101014.50;10451421;28;19925;-67
2023/03/18 21:33:58;;;;;;;;;;;;;;;12.08;91.56;101014.22;10457058;28;19925;-68
2023/03/18 21:39:00;;;;;;;;;;;;;;;12.32;86.60;101023.34;10462116;28;19929;-67
2023/03/18 21:44:03;;;;;;;;;;;;;;;12.26;88.28;101016.69;10461409;28;19929;-68
2023/03/18 21:49:05;;;;;;;;;;;;;;;12.17;88.19;101006.72;10462843;28;19928;-67
2023/03/18 21:54:13;;;;;;;;;;;;;;;11.84;94.77;100995.53;10457288;28;19951;-67
2023/03/18 21:59:15;;;;;;;;;;;;;;;12.12;90.53;100986.03;10455206;28;19963;-67
2023/03/18 22:04:17;;;;;;;;;;;;;;;12.05;89.59;100993.44;10462992;28;19932;-67
2023/03/18 22:09:20;;;;;;;;;;;;;;;12.21;90.23;100998.59;10461325;28;20008;-67
2023/03/18 22:14:22;;;;;;;;;;;;;;;12.04;92.02;100983.03;10455406;28;19971;-67
2023/03/18 22:19:24;;;;;;;;;;;;;;;11.92;94.36;100987.25;10420987;28;19925;-68
2023/03/18 22:24:26;;;;;;;;;;;;;;;11.87;93.08;100971.75;10420998;28;19929;-68
2023/03/18 22:29:29;;;;;;;;;;;;;;;11.66;95.47;100976.47;10455856;28;19940;-68
2023/03/18 22:34:31;;;;;;;;;;;;;;;11.75;93.23;100971.63;10458443;28;20445;-68
2023/03/18 22:39:33;;;;;;;;;;;;;;;11.57;96.09;100978.81;10461579;28;19936;-68
2023/03/18 22:44:35;;;;;;;;;;;;;;;11.58;96.98;100981.31;10458812;28;20367;-68
2023/03/18 22:49:37;;;;;;;;;;;;;;;11.60;98.25;101010.06;10460678;28;20371;-68
2023/03/18 22:54:40;;;;;;;;;;;;;;;11.57;99.33;101015.53;10460505;28;19925;-68
2023/03/18 22:59:42;;;;;;;;;;;;;;;11.67;95.67;101014.06;10457822;28;19925;-68
2023/03/18 23:04:46;;;;;;;;;;;;;;;11.79;93.57;101007.25;10459859;28;19979;-68
2023/03/18 23:09:48;;;;;;;;;;;;;;;11.47;95.41;101002.94;10459864;28;20329;-68
2023/03/18 23:14:58;;;;;;;;;;;;;;;11.58;93.48;101011.94;10459703;28;20367;-68
2023/03/18 23:20:00;;;;;;;;;;;;;;;11.41;94.75;101005.91;10458631;28;19986;-68
2023/03/18 23:25:02;;;;;;;;;;;;;;;11.55;93.65;101007.75;10459173;28;19931;-68
2023/03/18 23:30:05;;;;;;;;;;;;;;;11.59;91.78;101006.63;10459048;28;20323;-68
2023/03/18 23:35:08;;;;;;;;;;;;;;;11.65;90.29;101001.03;10459475;28;19932;-68
2023/03/18 23:40:10;;;;;;;;;;;;;;;11.69;90.04;101007.75;10457785;28;19924;-68
2023/03/18 23:45:12;;;;;;;;;;;;;;;11.87;90.44;101005.84;10458482;28;19990;-68
2023/03/18 23:50:15;;;;;;;;;;;;;;;11.63;93.76;101012.53;10458260;28;20361;-68
2023/03/18 23:55:17;;;;;;;;;;;;;;;11.55;98.90;101010.38;10458294;28;19924;-67
